sensor_id;sensor_type;location;lat;lon;timestamp;temperature;humidity
52451;DHT22;38366;53.176;6.540;2022-08-21T00:02:22;16.90;99.90
52451;DHT22;38366;53.176;6.540;2022-08-21T00:04:49;16.90;99.90
52451;DHT22;38366;53.176;6.540;2022-08-21T00:07:16;16.90;99.90
52451;DHT22;38366;53.176;6.540;2022-08-21T00:09:42;16.90;99.90
52451;DHT22;38366;53.176;6.540;2022-08-21T00:12:07;16.80;99.90
52451;DHT22;38366;53.176;6.540;2022-08-21T00:14:34;16.80;99.90
52451;DHT22;38366;53.176;6.540;2022-08-21T00:17:00;16.80;99.90
52451;DHT22;38366;53.176;6.540;2022-08-21T00:19:26;16.80;99.90
52451;DHT22;38366;53.176;6.540;2022-08-21T00:21:53;16.70;99.90
52451;DHT22;38366;53.176;6.540;2022-08-21T00:24:21;16.70;99.90
52451;DHT22;38366;53.176;6.540;2022-08-21T00:26:47;16.70;99.90
52451;DHT22;38366;53.176;6.540;2022-08-21T00:29:13;16.60;99.90
52451;DHT22;38366;53.176;6.540;2022-08-21T00:31:40;16.60;99.90
52451;DHT22;38366;53.176;6.540;2022-08-21T00:34:06;16.50;99.90
52451;DHT22;38366;53.176;6.540;2022-08-21T00:36:33;16.50;99.90
52451;DHT22;38366;53.176;6.540;2022-08-21T00:38:59;16.50;99.90
52451;DHT22;38366;53.176;6.540;2022-08-21T00:41:25;16.40;99.90
52451;DHT22;38366;53.176;6.540;2022-08-21T00:43:51;16.40;99.90
52451;DHT22;38366;53.176;6.540;2022-08-21T00:46:17;16.30;99.90
52451;DHT22;38366;53.176;6.540;2022-08-21T00:48:42;16.30;99.90
52451;DHT22;38366;53.176;6.540;2022-08-21T00:51:15;16.20;99.90
52451;DHT22;38366;53.176;6.540;2022-08-21T00:53:49;16.20;99.90
52451;DHT22;38366;53.176;6.540;2022-08-21T00:56:19;16.30;99.90
52451;DHT22;38366;53.176;6.540;2022-08-21T00:58:46;16.30;99.90
52451;DHT22;38366;53.176;6.540;2022-08-21T01:01:13;16.30;99.90
52451;DHT22;38366;53.176;6.540;2022-08-21T01:03:39;16.30;99.90
52451;DHT22;38366;53.176;6.540;2022-08-21T01:06:05;16.20;99.90
52451;DHT22;38366;53.176;6.540;2022-08-21T01:08:32;16.20;99.90
52451;DHT22;38366;53.176;6.540;2022-08-21T01:10:59;16.20;99.90
52451;DHT22;38366;53.176;6.540;2022-08-21T01:13:27;16.20;99.90
52451;DHT22;38366;53.176;6.540;2022-08-21T01:15:56;16.20;99.90
52451;DHT22;38366;53.176;6.540;2022-08-21T01:18:25;16.10;99.90
52451;DHT22;38366;53.176;6.540;2022-08-21T01:21:02;16.10;99.90
52451;DHT22;38366;53.176;6.540;2022-08-21T01:23:27;16.10;99.90
52451;DHT22;38366;53.176;6.540;2022-08-21T01:25:53;16.10;99.90
52451;DHT22;38366;53.176;6.540;2022-08-21T01:28:19;16.10;99.90
52451;DHT22;38366;53.176;6.540;2022-08-21T01:30:46;16.10;99.90
52451;DHT22;38366;53.176;6.540;2022-08-21T01:33:13;16.10;99.90
52451;DHT22;38366;53.176;6.540;2022-08-21T01:35:38;16.10;99.90
52451;DHT22;38366;53.176;6.540;2022-08-21T01:38:04;16.10;99.90
52451;DHT22;38366;53.176;6.540;2022-08-21T01:40:30;16.20;99.90
52451;DHT22;38366;53.176;6.540;2022-08-21T01:42:56;16.10;99.90
52451;DHT22;38366;53.176;6.540;2022-08-21T01:45:21;16.00;99.90
52451;DHT22;38366;53.176;6.540;2022-08-21T01:47:47;16.00;99.90
52451;DHT22;38366;53.176;6.540;2022-08-21T01:50:15;15.90;99.90
52451;DHT22;38366;53.176;6.540;2022-08-21T01:52:41;15.80;99.90
52451;DHT22;38366;53.176;6.540;2022-08-21T01:55:08;15.80;99.90
52451;DHT22;38366;53.176;6.540;2022-08-21T01:57:34;15.70;99.90
52451;DHT22;38366;53.176;6.540;2022-08-21T02:00:00;15.70;99.90
52451;DHT22;38366;53.176;6.540;2022-08-21T02:02:26;15.70;99.90
52451;DHT22;38366;53.176;6.540;2022-08-21T02:04:52;15.60;99.90
52451;DHT22;38366;53.176;6.540;2022-08-21T02:07:17;15.70;99.90
52451;DHT22;38366;53.176;6.540;2022-08-21T02:09:44;15.60;99.90
52451;DHT22;38366;53.176;6.540;2022-08-21T02:12:10;15.60;99.90
52451;DHT22;38366;53.176;6.540;2022-08-21T02:14:36;15.60;99.90
52451;DHT22;38366;53.176;6.540;2022-08-21T02:17:03;15.60;99.90
52451;DHT22;38366;53.176;6.540;2022-08-21T02:19:28;15.50;99.90
52451;DHT22;38366;53.176;6.540;2022-08-21T02:21:54;15.60;99.90
52451;DHT22;38366;53.176;6.540;2022-08-21T02:24:20;15.60;99.90
52451;DHT22;38366;53.176;6.540;2022-08-21T02:26:45;15.50;99.90
52451;DHT22;38366;53.176;6.540;2022-08-21T02:29:12;15.50;99.90
52451;DHT22;38366;53.176;6.540;2022-08-21T02:31:38;15.50;99.90
52451;DHT22;38366;53.176;6.540;2022-08-21T02:34:04;15.50;99.90
52451;DHT22;38366;53.176;6.540;2022-08-21T02:36:29;15.50;99.90
52451;DHT22;38366;53.176;6.540;2022-08-21T02:38:55;15.50;99.90
52451;DHT22;38366;53.176;6.540;2022-08-21T02:41:22;15.40;99.90
52451;DHT22;38366;53.176;6.540;2022-08-21T02:43:49;15.30;99.90
52451;DHT22;38366;53.176;6.540;2022-08-21T02:46:16;15.30;99.90
52451;DHT22;38366;53.176;6.540;2022-08-21T02:48:43;15.30;99.90
52451;DHT22;38366;53.176;6.540;2022-08-21T02:51:12;15.20;99.90
52451;DHT22;38366;53.176;6.540;2022-08-21T02:53:39;15.20;99.90
52451;DHT22;38366;53.176;6.540;2022-08-21T02:56:07;15.20;99.90
52451;DHT22;38366;53.176;6.540;2022-08-21T02:58:37;15.20;99.90
52451;DHT22;38366;53.176;6.540;2022-08-21T03:01:04;15.10;99.90
52451;DHT22;38366;53.176;6.540;2022-08-21T03:03:30;15.10;99.90
52451;DHT22;38366;53.176;6.540;2022-08-21T03:05:56;15.10;99.90
52451;DHT22;38366;53.176;6.540;2022-08-21T03:08:22;15.10;99.90
52451;DHT22;38366;53.176;6.540;2022-08-21T03:10:49;15.10;99.90
52451;DHT22;38366;53.176;6.540;2022-08-21T03:13:17;15.00;99.90
52451;DHT22;38366;53.176;6.540;2022-08-21T03:15:43;15.00;99.90
52451;DHT22;38366;53.176;6.540;2022-08-21T03:18:10;15.00;99.90
52451;DHT22;38366;53.176;6.540;2022-08-21T03:20:37;14.90;99.90
52451;DHT22;38366;53.176;6.540;2022-08-21T03:23:05;14.90;99.90
52451;DHT22;38366;53.176;6.540;2022-08-21T03:25:31;14.80;99.90
52451;DHT22;38366;53.176;6.540;2022-08-21T03:28:01;14.80;99.90
52451;DHT22;38366;53.176;6.540;2022-08-21T03:30:27;14.70;99.90
52451;DHT22;38366;53.176;6.540;2022-08-21T03:32:53;14.70;99.90
52451;DHT22;38366;53.176;6.540;2022-08-21T03:35:20;14.70;99.90
52451;DHT22;38366;53.176;6.540;2022-08-21T03:37:46;14.60;99.90
52451;DHT22;38366;53.176;6.540;2022-08-21T03:40:14;14.60;99.90
52451;DHT22;38366;53.176;6.540;2022-08-21T03:42:41;14.60;99.90
52451;DHT22;38366;53.176;6.540;2022-08-21T03:45:07;14.60;99.90
52451;DHT22;38366;53.176;6.540;2022-08-21T03:47:33;14.60;99.90
52451;DHT22;38366;53.176;6.540;2022-08-21T03:50:00;14.60;99.90
52451;DHT22;38366;53.176;6.540;2022-08-21T03:52:26;14.50;99.90
52451;DHT22;38366;53.176;6.540;2022-08-21T03:54:52;14.60;99.90
52451;DHT22;38366;53.176;6.540;2022-08-21T03:57:17;14.50;99.90
52451;DHT22;38366;53.176;6.540;2022-08-21T03:59:43;14.60;99.90
52451;DHT22;38366;53.176;6.540;2022-08-21T04:02:10;14.60;99.90
52451;DHT22;38366;53.176;6.540;2022-08-21T04:04:36;14.60;99.90
52451;DHT22;38366;53.176;6.540;2022-08-21T04:07:03;14.50;99.90
52451;DHT22;38366;53.176;6.540;2022-08-21T04:09:29;14.50;99.90
52451;DHT22;38366;53.176;6.540;2022-08-21T04:11:56;14.40;99.90
52451;DHT22;38366;53.176;6.540;2022-08-21T04:14:22;14.40;99.90
52451;DHT22;38366;53.176;6.540;2022-08-21T04:16:48;14.40;99.90
52451;DHT22;38366;53.176;6.540;2022-08-21T04:19:14;14.40;99.90
52451;DHT22;38366;53.176;6.540;2022-08-21T04:21:41;14.40;99.90
52451;DHT22;38366;53.176;6.540;2022-08-21T04:24:08;14.40;99.90
52451;DHT22;38366;53.176;6.540;2022-08-21T04:26:35;14.40;99.90
52451;DHT22;38366;53.176;6.540;2022-08-21T04:29:03;14.50;99.90
52451;DHT22;38366;53.176;6.540;2022-08-21T04:31:30;14.50;99.90
52451;DHT22;38366;53.176;6.540;2022-08-21T04:33:55;14.50;99.90
52451;DHT22;38366;53.176;6.540;2022-08-21T04:36:22;14.50;99.90
52451;DHT22;38366;53.176;6.540;2022-08-21T04:38:48;14.50;99.90
52451;DHT22;38366;53.176;6.540;2022-08-21T04:41:14;14.50;99.90
52451;DHT22;38366;53.176;6.540;2022-08-21T04:43:40;14.50;99.90
52451;DHT22;38366;53.176;6.540;2022-08-21T04:46:05;14.50;99.90
52451;DHT22;38366;53.176;6.540;2022-08-21T04:48:31;14.50;99.90
52451;DHT22;38366;53.176;6.540;2022-08-21T04:51:30;14.50;99.90
52451;DHT22;38366;53.176;6.540;2022-08-21T04:54:02;14.50;99.90
52451;DHT22;38366;53.176;6.540;2022-08-21T04:56:35;14.50;99.90
52451;DHT22;38366;53.176;6.540;2022-08-21T04:59:06;14.50;99.90
52451;DHT22;38366;53.176;6.540;2022-08-21T05:01:37;14.50;99.90
52451;DHT22;38366;53.176;6.540;2022-08-21T05:04:05;14.50;99.90
52451;DHT22;38366;53.176;6.540;2022-08-21T05:06:35;14.50;99.90
52451;DHT22;38366;53.176;6.540;2022-08-21T05:09:02;14.60;99.90
52451;DHT22;38366;53.176;6.540;2022-08-21T05:11:30;14.60;99.90
52451;DHT22;38366;53.176;6.540;2022-08-21T05:13:56;14.60;99.90
52451;DHT22;38366;53.176;6.540;2022-08-21T05:16:21;14.60;99.90
52451;DHT22;38366;53.176;6.540;2022-08-21T05:18:47;14.60;99.90
52451;DHT22;38366;53.176;6.540;2022-08-21T05:21:13;14.60;99.90
52451;DHT22;38366;53.176;6.540;2022-08-21T05:23:38;14.60;99.90
52451;DHT22;38366;53.176;6.540;2022-08-21T05:26:04;14.60;99.90
52451;DHT22;38366;53.176;6.540;2022-08-21T05:28:31;14.70;99.90
52451;DHT22;38366;53.176;6.540;2022-08-21T05:30:57;14.70;99.90
52451;DHT22;38366;53.176;6.540;2022-08-21T05:33:22;14.80;99.90
52451;DHT22;38366;53.176;6.540;2022-08-21T05:35:52;14.80;99.90
52451;DHT22;38366;53.176;6.540;2022-08-21T05:38:22;14.80;99.90
52451;DHT22;38366;53.176;6.540;2022-08-21T05:40:47;14.90;99.90
52451;DHT22;38366;53.176;6.540;2022-08-21T05:43:14;15.00;99.90
52451;DHT22;38366;53.176;6.540;2022-08-21T05:45:40;15.10;99.90
52451;DHT22;38366;53.176;6.540;2022-08-21T05:48:17;15.20;99.90
52451;DHT22;38366;53.176;6.540;2022-08-21T05:50:44;15.30;99.90
52451;DHT22;38366;53.176;6.540;2022-08-21T05:53:11;15.40;99.90
52451;DHT22;38366;53.176;6.540;2022-08-21T05:55:37;15.60;99.90
52451;DHT22;38366;53.176;6.540;2022-08-21T05:58:03;15.70;99.90
52451;DHT22;38366;53.176;6.540;2022-08-21T06:00:29;15.80;99.90
52451;DHT22;38366;53.176;6.540;2022-08-21T06:02:55;15.90;99.90
52451;DHT22;38366;53.176;6.540;2022-08-21T06:05:21;16.00;99.90
52451;DHT22;38366;53.176;6.540;2022-08-21T06:07:46;16.20;99.90
52451;DHT22;38366;53.176;6.540;2022-08-21T06:10:12;16.30;99.90
52451;DHT22;38366;53.176;6.540;2022-08-21T06:12:38;16.50;99.90
52451;DHT22;38366;53.176;6.540;2022-08-21T06:15:04;16.60;99.90
52451;DHT22;38366;53.176;6.540;2022-08-21T06:17:30;16.70;99.90
52451;DHT22;38366;53.176;6.540;2022-08-21T06:19:56;17.00;99.90
52451;DHT22;38366;53.176;6.540;2022-08-21T06:22:21;17.10;99.90
52451;DHT22;38366;53.176;6.540;2022-08-21T06:24:47;17.30;99.90
52451;DHT22;38366;53.176;6.540;2022-08-21T06:27:13;17.40;99.90
52451;DHT22;38366;53.176;6.540;2022-08-21T06:29:40;17.50;99.90
52451;DHT22;38366;53.176;6.540;2022-08-21T06:32:06;17.60;99.90
52451;DHT22;38366;53.176;6.540;2022-08-21T06:34:36;17.80;99.90
52451;DHT22;38366;53.176;6.540;2022-08-21T06:37:03;17.90;99.90
52451;DHT22;38366;53.176;6.540;2022-08-21T06:39:29;18.30;99.90
52451;DHT22;38366;53.176;6.540;2022-08-21T06:41:55;18.90;99.90
52451;DHT22;38366;53.176;6.540;2022-08-21T06:44:21;19.40;99.90
52451;DHT22;38366;53.176;6.540;2022-08-21T06:46:47;19.90;99.90
52451;DHT22;38366;53.176;6.540;2022-08-21T06:49:12;20.40;99.90
52451;DHT22;38366;53.176;6.540;2022-08-21T06:51:38;20.70;99.90
52451;DHT22;38366;53.176;6.540;2022-08-21T06:54:04;20.90;99.90
52451;DHT22;38366;53.176;6.540;2022-08-21T06:56:30;21.20;99.90
52451;DHT22;38366;53.176;6.540;2022-08-21T06:58:56;21.50;99.90
52451;DHT22;38366;53.176;6.540;2022-08-21T07:01:24;21.70;99.90
52451;DHT22;38366;53.176;6.540;2022-08-21T07:03:50;22.00;99.90
52451;DHT22;38366;53.176;6.540;2022-08-21T07:06:16;22.20;99.90
52451;DHT22;38366;53.176;6.540;2022-08-21T07:08:42;22.20;99.90
52451;DHT22;38366;53.176;6.540;2022-08-21T07:11:17;22.50;99.90
52451;DHT22;38366;53.176;6.540;2022-08-21T07:13:43;22.70;99.90
52451;DHT22;38366;53.176;6.540;2022-08-21T07:16:08;22.90;99.90
52451;DHT22;38366;53.176;6.540;2022-08-21T07:18:34;23.10;99.90
52451;DHT22;38366;53.176;6.540;2022-08-21T07:21:05;23.20;99.90
52451;DHT22;38366;53.176;6.540;2022-08-21T07:23:36;23.20;99.90
52451;DHT22;38366;53.176;6.540;2022-08-21T07:26:03;23.40;99.90
52451;DHT22;38366;53.176;6.540;2022-08-21T07:28:29;23.40;99.90
52451;DHT22;38366;53.176;6.540;2022-08-21T07:30:57;23.50;99.90
52451;DHT22;38366;53.176;6.540;2022-08-21T07:33:25;23.70;99.90
52451;DHT22;38366;53.176;6.540;2022-08-21T07:35:51;23.90;99.90
52451;DHT22;38366;53.176;6.540;2022-08-21T07:38:17;23.90;99.90
52451;DHT22;38366;53.176;6.540;2022-08-21T07:40:45;24.00;99.90
52451;DHT22;38366;53.176;6.540;2022-08-21T07:43:11;24.10;99.90
52451;DHT22;38366;53.176;6.540;2022-08-21T07:45:37;23.90;99.90
52451;DHT22;38366;53.176;6.540;2022-08-21T07:48:03;23.90;99.90
52451;DHT22;38366;53.176;6.540;2022-08-21T07:50:29;24.00;99.90
52451;DHT22;38366;53.176;6.540;2022-08-21T07:52:55;24.20;99.90
52451;DHT22;38366;53.176;6.540;2022-08-21T07:55:21;24.40;99.90
52451;DHT22;38366;53.176;6.540;2022-08-21T07:57:48;24.40;99.90
52451;DHT22;38366;53.176;6.540;2022-08-21T08:00:18;24.50;99.90
52451;DHT22;38366;53.176;6.540;2022-08-21T08:02:47;24.50;99.90
52451;DHT22;38366;53.176;6.540;2022-08-21T08:05:16;24.70;99.90
52451;DHT22;38366;53.176;6.540;2022-08-21T08:07:42;25.00;99.90
52451;DHT22;38366;53.176;6.540;2022-08-21T08:10:08;24.90;99.90
52451;DHT22;38366;53.176;6.540;2022-08-21T08:12:36;25.10;99.90
52451;DHT22;38366;53.176;6.540;2022-08-21T08:15:06;25.20;99.90
52451;DHT22;38366;53.176;6.540;2022-08-21T08:17:32;25.20;99.90
52451;DHT22;38366;53.176;6.540;2022-08-21T08:19:58;25.20;99.90
52451;DHT22;38366;53.176;6.540;2022-08-21T08:22:26;25.30;99.90
52451;DHT22;38366;53.176;6.540;2022-08-21T08:24:52;25.60;99.90
52451;DHT22;38366;53.176;6.540;2022-08-21T08:27:19;25.80;99.90
52451;DHT22;38366;53.176;6.540;2022-08-21T08:29:45;25.90;99.90
52451;DHT22;38366;53.176;6.540;2022-08-21T08:32:11;25.90;99.90
52451;DHT22;38366;53.176;6.540;2022-08-21T08:34:38;25.90;99.90
52451;DHT22;38366;53.176;6.540;2022-08-21T08:37:05;26.00;99.90
52451;DHT22;38366;53.176;6.540;2022-08-21T08:39:32;26.30;99.60
52451;DHT22;38366;53.176;6.540;2022-08-21T08:44:45;26.60;99.70
52451;DHT22;38366;53.176;6.540;2022-08-21T08:47:14;26.60;99.50
52451;DHT22;38366;53.176;6.540;2022-08-21T08:49:49;26.80;99.60
52451;DHT22;38366;53.176;6.540;2022-08-21T08:52:49;26.80;99.40
52451;DHT22;38366;53.176;6.540;2022-08-21T08:55:22;27.00;99.30
52451;DHT22;38366;53.176;6.540;2022-08-21T08:57:50;26.90;99.40
52451;DHT22;38366;53.176;6.540;2022-08-21T09:00:19;27.10;99.70
52451;DHT22;38366;53.176;6.540;2022-08-21T09:02:46;27.40;99.60
52451;DHT22;38366;53.176;6.540;2022-08-21T09:05:40;27.60;99.60
52451;DHT22;38366;53.176;6.540;2022-08-21T09:16:46;27.40;99.40
52451;DHT22;38366;53.176;6.540;2022-08-21T09:27:36;28.30;99.00
52451;DHT22;38366;53.176;6.540;2022-08-21T09:30:05;28.60;98.80
52451;DHT22;38366;53.176;6.540;2022-08-21T09:32:32;28.50;99.00
52451;DHT22;38366;53.176;6.540;2022-08-21T09:35:02;28.50;99.20
52451;DHT22;38366;53.176;6.540;2022-08-21T09:37:30;28.10;98.80
52451;DHT22;38366;53.176;6.540;2022-08-21T09:39:58;27.70;98.90
52451;DHT22;38366;53.176;6.540;2022-08-21T09:42:30;27.60;99.00
52451;DHT22;38366;53.176;6.540;2022-08-21T09:47:35;27.60;98.50
52451;DHT22;38366;53.176;6.540;2022-08-21T09:50:12;28.00;98.90
52451;DHT22;38366;53.176;6.540;2022-08-21T09:52:44;28.50;98.60
52451;DHT22;38366;53.176;6.540;2022-08-21T09:55:18;29.10;97.70
52451;DHT22;38366;53.176;6.540;2022-08-21T09:58:05;29.30;97.30
52451;DHT22;38366;53.176;6.540;2022-08-21T10:00:34;29.40;97.20
52451;DHT22;38366;53.176;6.540;2022-08-21T10:05:38;29.80;96.10
52451;DHT22;38366;53.176;6.540;2022-08-21T10:08:04;30.10;96.80
52451;DHT22;38366;53.176;6.540;2022-08-21T10:10:36;30.40;96.50
52451;DHT22;38366;53.176;6.540;2022-08-21T10:20:52;29.60;96.50
52451;DHT22;38366;53.176;6.540;2022-08-21T10:29:02;30.10;95.90
52451;DHT22;38366;53.176;6.540;2022-08-21T10:34:49;30.50;94.50
52451;DHT22;38366;53.176;6.540;2022-08-21T10:40:15;28.90;96.00
52451;DHT22;38366;53.176;6.540;2022-08-21T10:48:02;27.40;97.00
52451;DHT22;38366;53.176;6.540;2022-08-21T10:50:33;27.00;97.80
52451;DHT22;38366;53.176;6.540;2022-08-21T10:56:00;26.60;99.30
52451;DHT22;38366;53.176;6.540;2022-08-21T10:58:57;26.30;99.90
52451;DHT22;38366;53.176;6.540;2022-08-21T11:01:24;26.30;99.90
52451;DHT22;38366;53.176;6.540;2022-08-21T11:06:37;26.10;99.80
52451;DHT22;38366;53.176;6.540;2022-08-21T11:09:20;26.00;99.90
52451;DHT22;38366;53.176;6.540;2022-08-21T11:11:56;25.90;99.90
52451;DHT22;38366;53.176;6.540;2022-08-21T11:14:47;25.80;99.90
52451;DHT22;38366;53.176;6.540;2022-08-21T11:17:18;25.80;99.90
52451;DHT22;38366;53.176;6.540;2022-08-21T11:22:15;25.70;99.90
52451;DHT22;38366;53.176;6.540;2022-08-21T11:25:00;25.60;99.90
52451;DHT22;38366;53.176;6.540;2022-08-21T11:27:43;25.60;99.90
52451;DHT22;38366;53.176;6.540;2022-08-21T11:30:11;25.60;99.90
52451;DHT22;38366;53.176;6.540;2022-08-21T11:41:02;25.70;99.90
52451;DHT22;38366;53.176;6.540;2022-08-21T11:43:37;26.20;99.90
52451;DHT22;38366;53.176;6.540;2022-08-21T11:49:10;27.10;98.80
52451;DHT22;38366;53.176;6.540;2022-08-21T11:51:55;27.20;99.30
52451;DHT22;38366;53.176;6.540;2022-08-21T11:57:17;27.10;99.00
52451;DHT22;38366;53.176;6.540;2022-08-21T11:59:54;26.90;98.90
52451;DHT22;38366;53.176;6.540;2022-08-21T12:02:24;26.80;99.10
52451;DHT22;38366;53.176;6.540;2022-08-21T12:05:06;26.70;99.10
52451;DHT22;38366;53.176;6.540;2022-08-21T12:07:38;26.60;98.30
52451;DHT22;38366;53.176;6.540;2022-08-21T12:10:12;26.70;98.50
52451;DHT22;38366;53.176;6.540;2022-08-21T12:12:40;26.70;98.70
52451;DHT22;38366;53.176;6.540;2022-08-21T12:15:27;26.80;98.90
52451;DHT22;38366;53.176;6.540;2022-08-21T12:18:06;26.80;98.70
52451;DHT22;38366;53.176;6.540;2022-08-21T12:26:59;26.50;98.80
52451;DHT22;38366;53.176;6.540;2022-08-21T12:29:26;26.90;97.90
52451;DHT22;38366;53.176;6.540;2022-08-21T12:31:56;27.20;97.60
52451;DHT22;38366;53.176;6.540;2022-08-21T12:34:31;27.50;97.30
52451;DHT22;38366;53.176;6.540;2022-08-21T12:37:02;27.50;97.20
52451;DHT22;38366;53.176;6.540;2022-08-21T12:39:30;27.10;97.50
52451;DHT22;38366;53.176;6.540;2022-08-21T12:42:23;26.80;98.10
52451;DHT22;38366;53.176;6.540;2022-08-21T12:45:11;26.40;98.00
52451;DHT22;38366;53.176;6.540;2022-08-21T12:47:47;26.50;98.50
52451;DHT22;38366;53.176;6.540;2022-08-21T12:50:32;27.00;98.00
52451;DHT22;38366;53.176;6.540;2022-08-21T12:53:26;27.70;97.70
52451;DHT22;38366;53.176;6.540;2022-08-21T12:55:54;28.00;96.60
52451;DHT22;38366;53.176;6.540;2022-08-21T12:58:25;28.00;96.70
52451;DHT22;38366;53.176;6.540;2022-08-21T13:03:43;28.00;96.80
52451;DHT22;38366;53.176;6.540;2022-08-21T13:06:14;28.00;97.10
52451;DHT22;38366;53.176;6.540;2022-08-21T13:08:43;27.90;97.20
52451;DHT22;38366;53.176;6.540;2022-08-21T13:11:10;27.80;97.10
52451;DHT22;38366;53.176;6.540;2022-08-21T13:13:40;27.70;96.80
52451;DHT22;38366;53.176;6.540;2022-08-21T13:16:07;27.60;96.90
52451;DHT22;38366;53.176;6.540;2022-08-21T13:18:36;27.50;96.70
52451;DHT22;38366;53.176;6.540;2022-08-21T13:21:12;27.30;96.80
52451;DHT22;38366;53.176;6.540;2022-08-21T13:23:38;27.20;97.00
52451;DHT22;38366;53.176;6.540;2022-08-21T13:26:23;27.00;96.50
52451;DHT22;38366;53.176;6.540;2022-08-21T13:28:49;26.90;96.70
52451;DHT22;38366;53.176;6.540;2022-08-21T13:31:24;26.90;96.70
52451;DHT22;38366;53.176;6.540;2022-08-21T13:33:50;26.80;96.80
52451;DHT22;38366;53.176;6.540;2022-08-21T13:36:37;26.60;97.00
52451;DHT22;38366;53.176;6.540;2022-08-21T13:39:03;26.40;96.80
52451;DHT22;38366;53.176;6.540;2022-08-21T13:41:31;26.40;97.10
52451;DHT22;38366;53.176;6.540;2022-08-21T13:44:23;26.30;97.30
52451;DHT22;38366;53.176;6.540;2022-08-21T13:46:52;26.30;97.20
52451;DHT22;38366;53.176;6.540;2022-08-21T13:49:29;26.30;97.40
52451;DHT22;38366;53.176;6.540;2022-08-21T13:51:55;26.30;97.60
52451;DHT22;38366;53.176;6.540;2022-08-21T13:54:25;26.30;97.90
52451;DHT22;38366;53.176;6.540;2022-08-21T13:56:51;26.40;98.10
52451;DHT22;38366;53.176;6.540;2022-08-21T13:59:32;26.40;98.00
52451;DHT22;38366;53.176;6.540;2022-08-21T14:02:17;26.40;97.00
52451;DHT22;38366;53.176;6.540;2022-08-21T14:04:57;26.30;97.40
52451;DHT22;38366;53.176;6.540;2022-08-21T14:07:38;26.40;97.40
52451;DHT22;38366;53.176;6.540;2022-08-21T14:10:07;26.40;97.30
52451;DHT22;38366;53.176;6.540;2022-08-21T14:12:46;26.40;97.50
52451;DHT22;38366;53.176;6.540;2022-08-21T14:15:15;26.50;97.60
52451;DHT22;38366;53.176;6.540;2022-08-21T14:17:42;26.50;97.40
52451;DHT22;38366;53.176;6.540;2022-08-21T14:20:43;26.50;97.40
52451;DHT22;38366;53.176;6.540;2022-08-21T14:23:02;26.60;97.70
52451;DHT22;38366;53.176;6.540;2022-08-21T14:28:23;26.90;97.40
52451;DHT22;38366;53.176;6.540;2022-08-21T14:30:50;26.90;97.00
52451;DHT22;38366;53.176;6.540;2022-08-21T14:33:28;26.90;97.20
52451;DHT22;38366;53.176;6.540;2022-08-21T14:35:56;26.90;96.80
52451;DHT22;38366;53.176;6.540;2022-08-21T14:38:23;26.80;96.50
52451;DHT22;38366;53.176;6.540;2022-08-21T14:40:53;26.80;96.60
52451;DHT22;38366;53.176;6.540;2022-08-21T14:43:20;26.50;95.60
52451;DHT22;38366;53.176;6.540;2022-08-21T14:45:46;26.30;96.20
52451;DHT22;38366;53.176;6.540;2022-08-21T14:48:12;26.20;96.30
52451;DHT22;38366;53.176;6.540;2022-08-21T14:50:38;26.20;96.60
52451;DHT22;38366;53.176;6.540;2022-08-21T14:53:04;26.30;97.00
52451;DHT22;38366;53.176;6.540;2022-08-21T14:55:31;26.30;97.30
52451;DHT22;38366;53.176;6.540;2022-08-21T14:58:18;26.30;96.20
52451;DHT22;38366;53.176;6.540;2022-08-21T15:00:43;26.20;96.90
52451;DHT22;38366;53.176;6.540;2022-08-21T15:03:09;26.40;97.60
52451;DHT22;38366;53.176;6.540;2022-08-21T15:05:35;26.40;96.60
52451;DHT22;38366;53.176;6.540;2022-08-21T15:08:00;26.40;97.10
52451;DHT22;38366;53.176;6.540;2022-08-21T15:10:27;26.20;96.80
52451;DHT22;38366;53.176;6.540;2022-08-21T15:12:52;26.20;96.80
52451;DHT22;38366;53.176;6.540;2022-08-21T15:15:18;26.10;96.70
52451;DHT22;38366;53.176;6.540;2022-08-21T15:17:44;26.00;96.90
52451;DHT22;38366;53.176;6.540;2022-08-21T15:20:10;26.00;97.00
52451;DHT22;38366;53.176;6.540;2022-08-21T15:22:35;26.10;96.90
52451;DHT22;38366;53.176;6.540;2022-08-21T15:25:01;26.20;97.10
52451;DHT22;38366;53.176;6.540;2022-08-21T15:27:28;26.30;96.90
52451;DHT22;38366;53.176;6.540;2022-08-21T15:29:54;26.20;96.80
52451;DHT22;38366;53.176;6.540;2022-08-21T15:32:25;26.10;96.50
52451;DHT22;38366;53.176;6.540;2022-08-21T15:34:53;26.00;96.30
52451;DHT22;38366;53.176;6.540;2022-08-21T15:37:19;26.00;96.60
52451;DHT22;38366;53.176;6.540;2022-08-21T15:39:45;25.90;96.70
52451;DHT22;38366;53.176;6.540;2022-08-21T15:42:11;25.80;96.60
52451;DHT22;38366;53.176;6.540;2022-08-21T15:44:39;25.80;96.90
52451;DHT22;38366;53.176;6.540;2022-08-21T15:47:06;25.60;96.70
52451;DHT22;38366;53.176;6.540;2022-08-21T15:49:32;25.50;96.50
52451;DHT22;38366;53.176;6.540;2022-08-21T15:51:57;25.50;97.10
52451;DHT22;38366;53.176;6.540;2022-08-21T15:54:23;25.50;97.20
52451;DHT22;38366;53.176;6.540;2022-08-21T15:56:50;25.40;97.30
52451;DHT22;38366;53.176;6.540;2022-08-21T15:59:19;25.40;97.50
52451;DHT22;38366;53.176;6.540;2022-08-21T16:01:50;25.40;97.70
52451;DHT22;38366;53.176;6.540;2022-08-21T16:04:25;25.40;97.70
52451;DHT22;38366;53.176;6.540;2022-08-21T16:06:51;25.50;98.00
52451;DHT22;38366;53.176;6.540;2022-08-21T16:09:17;25.50;98.00
52451;DHT22;38366;53.176;6.540;2022-08-21T16:11:43;25.20;98.30
52451;DHT22;38366;53.176;6.540;2022-08-21T16:14:12;25.20;98.50
52451;DHT22;38366;53.176;6.540;2022-08-21T16:16:39;25.20;98.60
52451;DHT22;38366;53.176;6.540;2022-08-21T16:19:05;25.00;98.50
52451;DHT22;38366;53.176;6.540;2022-08-21T16:21:32;24.90;98.90
52451;DHT22;38366;53.176;6.540;2022-08-21T16:23:58;24.80;99.10
52451;DHT22;38366;53.176;6.540;2022-08-21T16:26:23;24.70;99.10
52451;DHT22;38366;53.176;6.540;2022-08-21T16:28:51;24.50;99.20
52451;DHT22;38366;53.176;6.540;2022-08-21T16:31:17;24.40;99.20
52451;DHT22;38366;53.176;6.540;2022-08-21T16:33:44;24.30;99.10
52451;DHT22;38366;53.176;6.540;2022-08-21T16:36:10;24.20;99.10
52451;DHT22;38366;53.176;6.540;2022-08-21T16:38:36;24.10;99.20
52451;DHT22;38366;53.176;6.540;2022-08-21T16:41:03;23.90;99.30
52451;DHT22;38366;53.176;6.540;2022-08-21T16:43:29;23.90;99.30
52451;DHT22;38366;53.176;6.540;2022-08-21T16:45:57;23.90;99.30
52451;DHT22;38366;53.176;6.540;2022-08-21T16:48:23;23.90;99.70
52451;DHT22;38366;53.176;6.540;2022-08-21T16:50:49;23.90;99.90
52451;DHT22;38366;53.176;6.540;2022-08-21T16:53:15;24.00;99.90
52451;DHT22;38366;53.176;6.540;2022-08-21T16:55:41;24.00;99.90
52451;DHT22;38366;53.176;6.540;2022-08-21T16:58:24;24.00;99.90
52451;DHT22;38366;53.176;6.540;2022-08-21T17:00:50;24.00;99.90
52451;DHT22;38366;53.176;6.540;2022-08-21T17:03:18;23.90;99.90
52451;DHT22;38366;53.176;6.540;2022-08-21T17:05:46;23.90;99.90